Dumfries, Virginia
Current Conditions -  °F | °C
As of 10:56 AM on Thursday 30 Oct 2014 (Local Time) from KNYG Reporting Station
Scattered Clouds Scattered Clouds  
Wind Chill: 58°   Ceiling: Unl
Heat Index: 58°   Visibility: 10mi
Dew Point: 36°   Wind: 13mph
Humidity: 44%   Direction: 360°N
Pressure: 30.08"   Gusts: 26mph
Location:  38.57°N, 77.33°W
Report Text: KNYG 301456Z 36011G23KT 10SM SCT160 14/02 A3008 RMK AO2 SLP187 T01440022 50007 $
Loading
Personal Weather Stations






























Interactive Weather Map
Tropical Storm Tracking
New forecast layout! Learn more

10-Day Weather Forecast

Advertisements
Track Severe Weather on mobile